Thunder radar more information blitzortung!


Radar de pluja more information rain snow radar


Visita la nostra xarxa de llocs de meteo:

Template documentation
and downloads

And another site



No particular awareness of the weather is required.    There are no Weather-warnings

Pagina Historial Weather Underground text

Diari Resum January 1, 2018 Unitats:  Imperial    Mètric   Tant
« Previous Dia
SegĂźent Dia »
Diari Setmana Mensual Anual Personalitzada
  Maxima: Minima: Media:
Temperatura: TemperatureC °F 7.4 °F 11.6 °F
Punt de rosada: DewpointC °F -2.1 °F 0.5 °F
Humitat: Humidity % 39 % 47 %
Wind Speed: WindSpeedKMH mph 0.0 mph 10 mph
RĂ fegues de vent: WindSpeedGustKMH mph - -
Vent:- - WSW
Pression baro: PressurehPa in 1017.8 in -
Precipitacions: 0.0 in    
Historical Graphs
 
 
Dades de taula per January 1, 2018
Temps Temperatura Punt de rosada Pression baro Vent Wind Speed RĂ fegues de vent Humitat Rainfall Rate (Hourly)
TemperatureC °F DewpointC °F PressurehPa in Calm     Humidity % HourlyPrecipMM in
00:02 12.4 °F 3.6 °F 1017.8 in WNW 7.4 mph 7.4 mph 55 % 0.0 in
00:04 12.3 °F 3.5 °F 1017.8 in West 5.6 mph 5.6 mph 55 % 0.0 in
00:05 7.9 °F -1.4 °F 1021.9 in West 4.8 mph 12.9 mph 52 % 0.0 in
00:07 12.3 °F 3.5 °F 1017.8 in WSW 3.7 mph 3.7 mph 55 % 0.0 in
00:10 12.2 °F 3.4 °F 1017.8 in WNW 5.6 mph 5.6 mph 55 % 0.0 in
00:13 12.2 °F 3.4 °F 1017.8 in SSW 7.4 mph 7.4 mph 55 % 0.0 in
00:15 7.9 °F -1.4 °F 1021.9 in WSW 9.7 mph 17.7 mph 52 % 0.0 in
00:18 12.1 °F 3.3 °F 1017.8 in WSW 7.4 mph 7.4 mph 55 % 0.0 in
00:21 12.0 °F 3.2 °F 1017.8 in WSW 9.7 mph 9.7 mph 55 % 0.0 in
00:24 12.0 °F 3.2 °F 1017.8 in WSW 10.0 mph 10.0 mph 55 % 0.0 in
00:25 8.0 °F -1.6 °F 1022.9 in West 12.9 mph 19.3 mph 51 % 0.0 in
00:35 8.0 °F -1.6 °F 1022.9 in West 11.3 mph 17.7 mph 51 % 0.0 in
00:45 8.0 °F -1.6 °F 1022.9 in West 11.3 mph 16.1 mph 51 % 0.0 in
00:55 7.9 °F -1.6 °F 1022.9 in WSW 12.9 mph 14.5 mph 51 % 0.0 in
01:05 7.9 °F -1.6 °F 1023.9 in WSW 11.3 mph 12.9 mph 51 % 0.0 in
01:15 7.8 °F -1.7 °F 1023.9 in WSW 9.7 mph 17.7 mph 51 % 0.0 in
01:25 7.7 °F -1.8 °F 1023.9 in WSW 9.7 mph 16.1 mph 51 % 0.0 in
01:35 7.7 °F -1.8 °F 1023.9 in WSW 8.0 mph 16.1 mph 51 % 0.0 in
01:45 7.6 °F -1.9 °F 1023.9 in WSW 8.0 mph 12.9 mph 51 % 0.0 in
01:55 7.6 °F -1.9 °F 1023.9 in West 4.8 mph 14.5 mph 51 % 0.0 in
02:05 7.6 °F -1.9 °F 1023.9 in West 8.0 mph 12.9 mph 51 % 0.0 in
02:15 7.6 °F -1.9 °F 1023.9 in WSW 9.7 mph 12.9 mph 51 % 0.0 in
02:25 7.6 °F -1.9 °F 1023.9 in WSW 4.8 mph 9.7 mph 51 % 0.0 in
02:35 7.5 °F -2.0 °F 1023.9 in SW 4.8 mph 9.7 mph 51 % 0.0 in
02:45 7.5 °F -2.0 °F 1023.9 in SW 4.8 mph 4.8 mph 51 % 0.0 in
02:55 7.4 °F -2.1 °F 1026.0 in SSW 4.8 mph 12.9 mph 51 % 0.0 in
03:05 7.5 °F -2.0 °F 1026.0 in WSW 4.8 mph 4.8 mph 51 % 0.0 in
03:15 7.7 °F -1.8 °F 1026.0 in WSW 8.0 mph 9.7 mph 51 % 0.0 in
03:25 8.0 °F -1.6 °F 1026.0 in West 8.0 mph 12.9 mph 51 % 0.0 in
03:35 8.3 °F -1.6 °F 1026.0 in West 14.5 mph 20.9 mph 50 % 0.0 in
03:45 8.6 °F -1.3 °F 1026.0 in West 9.7 mph 9.7 mph 50 % 0.0 in
03:55 8.9 °F -1.0 °F 1026.0 in West 11.3 mph 17.7 mph 50 % 0.0 in
04:05 9.1 °F -1.1 °F 1026.0 in WSW 4.8 mph 20.9 mph 49 % 0.0 in
04:15 9.3 °F -0.9 °F 1026.0 in West 9.7 mph 12.9 mph 49 % 0.0 in
04:25 9.6 °F -0.6 °F 1024.9 in West 8.0 mph 20.9 mph 49 % 0.0 in
04:35 9.7 °F -0.8 °F 1027.0 in WSW 12.9 mph 16.1 mph 48 % 0.0 in
04:45 10.0 °F -0.5 °F 1027.0 in WSW 11.3 mph 12.9 mph 48 % 0.0 in
04:55 10.0 °F -0.5 °F 1027.0 in West 9.7 mph 30.6 mph 48 % 0.0 in
05:05 10.2 °F -0.6 °F 1027.0 in West 12.9 mph 20.9 mph 47 % 0.0 in
11:09 10.5 °F -0.3 °F 1027.0 in WSW 20.4 mph 20.4 mph 47 % 0.0 in
11:10 10.5 °F -0.3 °F 1027.0 in WSW 14.8 mph 14.8 mph 47 % 0.0 in
11:15 10.6 °F -0.3 °F 1027.0 in SSW 14.8 mph 14.8 mph 47 % 0.0 in
11:16 10.7 °F -0.2 °F 1027.0 in West 14.8 mph 14.8 mph 47 % 0.0 in
11:21 10.8 °F -0.1 °F 1027.0 in West 13.7 mph 13.7 mph 47 % 0.0 in
11:23 10.8 °F -0.4 °F 1027.0 in WSW 16.7 mph 16.7 mph 46 % 0.0 in
11:28 10.9 °F -0.3 °F 1027.0 in WSW 9.3 mph 9.3 mph 46 % 0.0 in
11:33 10.9 °F -0.3 °F 1027.0 in WSW 28.3 mph 28.3 mph 46 % 0.0 in
11:37 10.9 °F -0.3 °F 1026.0 in West 12.6 mph 12.6 mph 46 % 0.0 in
11:40 11.0 °F -0.2 °F 1026.0 in WSW 9.3 mph 9.3 mph 46 % 0.0 in
11:45 11.3 °F 0.1 °F 1026.0 in West 9.3 mph 9.3 mph 46 % 0.0 in
11:47 11.4 °F 0.2 °F 1026.0 in South 7.4 mph 7.4 mph 46 % 0.0 in
11:50 11.4 °F 0.2 °F 1026.0 in WSW 16.7 mph 16.7 mph 46 % 0.0 in
11:56 11.5 °F 0.3 °F 1026.0 in WSW 7.4 mph 7.4 mph 46 % 0.0 in
12:00 11.7 °F 0.4 °F 1026.0 in WSW 9.3 mph 9.3 mph 46 % 0.0 in
12:01 11.7 °F 0.4 °F 1026.0 in WNW 9.3 mph 9.3 mph 46 % 0.0 in
12:06 11.7 °F 0.4 °F 1026.0 in West 16.4 mph 16.4 mph 46 % 0.0 in
12:09 11.6 °F 0.1 °F 1026.0 in WSW 11.1 mph 11.1 mph 45 % 0.0 in
12:14 11.8 °F 0.2 °F 1026.0 in WSW 10.0 mph 10.0 mph 45 % 0.0 in
12:15 11.9 °F 0.6 °F 1026.0 in West 9.5 mph 9.5 mph 46 % 0.0 in
12:20 12.0 °F 0.4 °F 1026.0 in NNW 9.3 mph 9.3 mph 45 % 0.0 in
12:21 12.0 °F 0.4 °F 1026.0 in SE 9.3 mph 9.3 mph 45 % 0.0 in
12:26 12.2 °F 0.6 °F 1026.0 in WSW 7.4 mph 7.4 mph 45 % 0.0 in
12:28 12.2 °F 0.6 °F 1026.0 in WNW 9.3 mph 9.3 mph 45 % 0.0 in
12:33 12.2 °F 0.6 °F 1026.0 in West 9.3 mph 9.3 mph 45 % 0.0 in
12:34 12.2 °F 0.6 °F 1026.0 in SSW 11.1 mph 11.1 mph 45 % 0.0 in
12:39 12.4 °F 0.8 °F 1024.9 in NW 5.6 mph 5.6 mph 45 % 0.0 in
12:40 12.5 °F 0.9 °F 1024.9 in South 5.6 mph 5.6 mph 45 % 0.0 in
12:45 12.7 °F 1.1 °F 1024.9 in WSW 9.3 mph 9.3 mph 45 % 0.0 in
12:46 12.7 °F 1.1 °F 1024.9 in WSW 9.5 mph 9.5 mph 45 % 0.0 in
12:51 12.9 °F 1.2 °F 1024.9 in SE 9.3 mph 9.3 mph 45 % 0.0 in
12:52 12.9 °F 1.2 °F 1023.9 in SE 7.4 mph 7.4 mph 45 % 0.0 in
12:57 13.4 °F 1.7 °F 1023.9 in WSW 9.0 mph 9.0 mph 45 % 0.0 in
12:59 13.3 °F 1.6 °F 1023.9 in NW 11.1 mph 11.1 mph 45 % 0.0 in
13:04 13.5 °F 1.8 °F 1023.9 in WSW 7.4 mph 7.4 mph 45 % 0.0 in
13:09 13.4 °F 1.4 °F 1023.9 in SW 13.0 mph 13.0 mph 44 % 0.0 in
13:14 13.0 °F 1.0 °F 1023.9 in WNW 13.0 mph 13.0 mph 44 % 0.0 in
13:15 13.0 °F 1.0 °F 1023.9 in West 8.0 mph 12.9 mph 44 % 0.0 in
13:20 12.9 °F 0.6 °F 1023.9 in WNW 6.4 mph 6.4 mph 43 % 0.0 in
13:22 12.9 °F 0.9 °F 1023.9 in SW 7.4 mph 7.4 mph 44 % 0.0 in
13:24 13.0 °F 1.0 °F 1023.9 in West 7.4 mph 7.4 mph 44 % 0.0 in
13:27 13.4 °F 1.4 °F 1023.9 in SW 4.2 mph 4.2 mph 44 % 0.0 in
13:30 13.7 °F 1.3 °F 1023.9 in WSW 11.1 mph 11.1 mph 43 % 0.0 in
13:33 13.7 °F 1.3 °F 1023.9 in WNW 13.0 mph 13.0 mph 43 % 0.0 in
13:36 13.6 °F 0.9 °F 1023.9 in WSW 9.3 mph 9.3 mph 42 % 0.0 in
13:39 13.7 °F 1.0 °F 1023.9 in NW 11.1 mph 11.1 mph 42 % 0.0 in
13:44 13.8 °F 1.1 °F 1023.9 in WNW 11.1 mph 11.1 mph 42 % 0.0 in
13:45 13.8 °F 1.1 °F 1023.9 in SW 11.1 mph 11.1 mph 42 % 0.0 in
13:49 13.7 °F 0.7 °F 1023.9 in WSW 9.3 mph 9.3 mph 41 % 0.0 in
13:51 13.6 °F 0.6 °F 1023.9 in SW 11.1 mph 11.1 mph 41 % 0.0 in
13:55 13.7 °F 0.3 °F 1022.9 in SW 22.2 mph 22.2 mph 40 % 0.0 in
13:57 13.6 °F 0.2 °F 1022.9 in West 20.4 mph 20.4 mph 40 % 0.0 in
14:02 13.7 °F 0.3 °F 1022.9 in WSW 16.4 mph 16.4 mph 40 % 0.0 in
14:04 13.7 °F 0.3 °F 1022.9 in WSW 9.3 mph 9.3 mph 40 % 0.0 in
14:08 13.6 °F 0.2 °F 1022.9 in SSE 9.3 mph 9.3 mph 40 % 0.0 in
14:13 13.5 °F 0.2 °F 1022.9 in SW 13.0 mph 13.0 mph 40 % 0.0 in
14:18 13.5 °F 0.2 °F 1022.9 in SW 13.0 mph 13.0 mph 40 % 0.0 in
14:21 13.6 °F 0.2 °F 1022.9 in WSW 13.0 mph 13.0 mph 40 % 0.0 in
14:24 13.7 °F 0.3 °F 1021.9 in SW 14.8 mph 14.8 mph 40 % 0.0 in
14:28 13.7 °F 0.3 °F 1021.9 in SSW 13.0 mph 13.0 mph 40 % 0.0 in
14:29 13.7 °F 0.3 °F 1021.9 in West 15.6 mph 15.6 mph 40 % 0.0 in
14:33 13.6 °F 0.2 °F 1021.9 in WSW 9.3 mph 9.3 mph 40 % 0.0 in
14:35 13.6 °F 0.2 °F 1021.9 in South 13.0 mph 13.0 mph 40 % 0.0 in
14:40 13.6 °F 0.2 °F 1021.9 in WSW 13.0 mph 13.0 mph 40 % 0.0 in
14:42 13.6 °F 0.6 °F 1021.9 in WSW 18.3 mph 18.3 mph 41 % 0.0 in
14:44 13.6 °F 0.2 °F 1021.9 in West 13.0 mph 13.0 mph 40 % 0.0 in
14:47 13.5 °F 0.2 °F 1021.9 in West 13.0 mph 13.0 mph 40 % 0.0 in
14:52 13.4 °F -0.3 °F 1021.9 in WSW 24.1 mph 24.1 mph 39 % 0.0 in
14:53 13.4 °F 0.1 °F 1021.9 in WSW 18.5 mph 18.5 mph 40 % 0.0 in
14:55 13.5 °F 0.2 °F 1021.9 in WSW 13.0 mph 13.0 mph 40 % 0.0 in
14:59 13.5 °F 0.2 °F 1021.9 in WNW 17.2 mph 17.2 mph 40 % 0.0 in
15:01 13.4 °F -0.3 °F 1021.9 in WSW 20.4 mph 20.4 mph 39 % 0.0 in
15:05 13.4 °F -0.3 °F 1021.9 in West 16.7 mph 16.7 mph 39 % 0.0 in
15:10 13.5 °F -0.2 °F 1021.9 in SW 14.8 mph 14.8 mph 39 % 0.0 in
15:11 13.5 °F -0.2 °F 1021.9 in WNW 14.8 mph 14.8 mph 39 % 0.0 in
15:16 13.6 °F -0.1 °F 1021.9 in West 14.8 mph 14.8 mph 39 % 0.0 in
15:19 13.5 °F -0.2 °F 1021.9 in WSW 20.4 mph 20.4 mph 39 % 0.0 in
15:22 13.4 °F -0.3 °F 1021.9 in SSE 13.0 mph 13.0 mph 39 % 0.0 in
15:27 13.3 °F -0.1 °F 1021.9 in WSW 10.3 mph 10.3 mph 40 % 0.0 in
15:28 13.3 °F -0.1 °F 1021.9 in WSW 10.3 mph 10.3 mph 40 % 0.0 in
15:33 13.4 °F 0.1 °F 1021.9 in SW 9.3 mph 9.3 mph 40 % 0.0 in
15:34 13.4 °F 0.1 °F 1021.9 in WSW 9.3 mph 9.3 mph 40 % 0.0 in
15:36 13.6 °F 0.2 °F 1021.9 in West 8.7 mph 8.7 mph 40 % 0.0 in
15:41 13.5 °F 0.2 °F 1020.9 in South 13.0 mph 13.0 mph 40 % 0.0 in
15:43 13.5 °F 0.2 °F 1020.9 in WSW 11.1 mph 11.1 mph 40 % 0.0 in
15:47 13.6 °F 0.2 °F 1020.9 in West 14.8 mph 14.8 mph 40 % 0.0 in
15:52 13.8 °F 0.4 °F 1021.9 in SW 16.7 mph 16.7 mph 40 % 0.0 in
15:53 13.7 °F 0.3 °F 1021.9 in West 16.7 mph 16.7 mph 40 % 0.0 in
15:56 13.5 °F 0.2 °F 1021.9 in WSW 11.1 mph 11.1 mph 40 % 0.0 in
16:01 13.2 °F -0.1 °F 1021.9 in WSW 12.6 mph 12.6 mph 40 % 0.0 in
16:02 13.2 °F -0.1 °F 1021.9 in West 11.1 mph 11.1 mph 40 % 0.0 in
16:03 13.1 °F -0.2 °F 1021.9 in West 13.0 mph 13.0 mph 40 % 0.0 in
16:07 13.0 °F -0.3 °F 1021.9 in WSW 11.1 mph 11.1 mph 40 % 0.0 in
16:12 13.0 °F -0.3 °F 1021.9 in WNW 9.3 mph 9.3 mph 40 % 0.0 in
16:13 13.0 °F -0.3 °F 1021.9 in WNW 9.3 mph 9.3 mph 40 % 0.0 in
16:15 12.9 °F -0.4 °F 1021.9 in WSW 7.4 mph 7.6 mph 40 % 0.0 in
16:19 12.9 °F -0.4 °F 1021.9 in WSW 14.8 mph 14.8 mph 40 % 0.0 in
16:20 12.9 °F -0.4 °F 1021.9 in West 9.3 mph 10.3 mph 40 % 0.0 in
16:21 12.8 °F -0.5 °F 1021.9 in WNW 9.3 mph 9.3 mph 40 % 0.0 in
16:24 12.9 °F -0.4 °F 1021.9 in WSW 16.7 mph 16.7 mph 40 % 0.0 in
16:26 12.9 °F -0.4 °F 1021.9 in WNW 16.7 mph 16.7 mph 40 % 0.0 in
16:29 12.8 °F -0.5 °F 1021.9 in SW 18.5 mph 18.5 mph 40 % 0.0 in
16:31 12.8 °F -0.5 °F 1021.9 in WSW 14.8 mph 14.8 mph 40 % 0.0 in
16:36 12.8 °F -0.5 °F 1021.9 in WNW 13.0 mph 13.0 mph 40 % 0.0 in
16:37 12.8 °F -0.5 °F 1021.9 in SW 13.0 mph 13.0 mph 40 % 0.0 in
16:42 12.9 °F -0.4 °F 1021.9 in SSW 13.0 mph 13.0 mph 40 % 0.0 in
16:47 12.8 °F -0.2 °F 1021.9 in WSW 11.4 mph 11.4 mph 41 % 0.0 in
16:48 12.8 °F -0.2 °F 1021.9 in WNW 11.1 mph 11.1 mph 41 % 0.0 in
16:51 12.8 °F -0.2 °F 1021.9 in WSW 13.0 mph 13.0 mph 41 % 0.0 in
16:53 12.8 °F -0.2 °F 1021.9 in WSW 9.5 mph 9.5 mph 41 % 0.0 in
16:58 12.8 °F -0.2 °F 1021.9 in WSW 13.0 mph 13.0 mph 41 % 0.0 in
17:00 12.7 °F -0.2 °F 1021.9 in WSW 9.3 mph 9.3 mph 41 % 0.0 in
17:05 12.6 °F -0.3 °F 1021.9 in WSW 9.3 mph 9.3 mph 41 % 0.0 in
17:08 12.5 °F -0.4 °F 1020.9 in SSW 9.3 mph 9.3 mph 41 % 0.0 in
17:10 12.5 °F -0.4 °F 1020.9 in WSW 10.0 mph 10.0 mph 41 % 0.0 in
17:11 12.5 °F -0.4 °F 1020.9 in SE 10.0 mph 10.0 mph 41 % 0.0 in
17:16 12.4 °F -0.5 °F 1020.9 in WSW 7.4 mph 7.4 mph 41 % 0.0 in
17:17 12.3 °F -0.6 °F 1020.9 in WSW 9.3 mph 9.3 mph 41 % 0.0 in
17:22 12.2 °F -0.7 °F 1020.9 in West 5.6 mph 5.6 mph 41 % 0.0 in
17:23 12.2 °F -0.7 °F 1020.9 in West 3.7 mph 4.7 mph 41 % 0.0 in
17:27 12.1 °F -0.8 °F 1020.9 in SW 6.4 mph 6.4 mph 41 % 0.0 in
17:28 12.1 °F -0.8 °F 1020.9 in West 8.7 mph 8.7 mph 41 % 0.0 in
17:33 12.0 °F -0.9 °F 1020.9 in SW 4.2 mph 4.2 mph 41 % 0.0 in
17:34 12.0 °F -0.9 °F 1020.9 in SW 12.6 mph 12.6 mph 41 % 0.0 in
17:38 12.0 °F -0.9 °F 1019.9 in West 3.7 mph 3.7 mph 41 % 0.0 in
17:43 12.0 °F -0.6 °F 1019.9 in WSW 3.7 mph 3.7 mph 42 % 0.0 in
17:44 12.0 °F -0.6 °F 1019.9 in WSW 3.7 mph 3.7 mph 42 % 0.0 in
17:49 11.8 °F -0.7 °F 1019.9 in SW 1.9 mph 1.9 mph 42 % 0.0 in
17:53 11.8 °F -0.7 °F 1018.8 in WSW 2.6 mph   42 % 0.0 in
17:57 11.7 °F -0.8 °F 1018.8 in SW 2.3 mph   42 % 0.0 in
18:02 11.6 °F -0.9 °F 1018.8 in SW 3.7 mph 3.7 mph 42 % 0.0 in
18:03 11.6 °F -0.9 °F 1018.8 in SW 3.9 mph 3.9 mph 42 % 0.0 in
18:08 11.7 °F -0.8 °F 1019.9 in SW 5.6 mph 5.6 mph 42 % 0.0 in
18:10 11.7 °F -0.8 °F 1019.9 in SW 3.7 mph 3.7 mph 42 % 0.0 in
18:12 11.7 °F -0.8 °F 1019.9 in West 3.7 mph 3.7 mph 42 % 0.0 in
18:15 11.7 °F -0.8 °F 1019.9 in WSW 3.7 mph 3.7 mph 42 % 0.0 in
18:17 11.6 °F -0.9 °F 1019.9 in West 3.7 mph 3.7 mph 42 % 0.0 in
18:19 11.6 °F -0.9 °F 1019.9 in SW 3.7 mph 3.7 mph 42 % 0.0 in
18:23 11.5 °F -1.0 °F 1019.9 in West 3.7 mph 3.7 mph 42 % 0.0 in
18:25 10.9 °F 2.2 °F 1019.9 in West 9.7 mph 14.5 mph 55 % 0.0 in
18:28 11.5 °F -1.0 °F 1019.9 in West 3.7 mph 3.7 mph 42 % 0.0 in
18:29 11.5 °F -1.0 °F 1019.9 in West 1.9 mph   42 % 0.0 in
18:33 11.4 °F -0.8 °F 1019.9 in Calm     43 % 0.0 in
18:35 11.0 °F 2.3 °F 1019.9 in West 8.0 mph 17.7 mph 55 % 0.0 in
18:36 11.3 °F -0.8 °F 1019.9 in WNW 3.9 mph 3.9 mph 43 % 0.0 in
18:39 11.3 °F -0.8 °F 1018.8 in Calm     43 % 0.0 in
18:42 11.3 °F -0.8 °F 1018.8 in SSE 2.3 mph   43 % 0.0 in
18:45 11.0 °F 2.3 °F 1019.9 in WSW 9.7 mph 24.1 mph 55 % 0.0 in
18:47 11.3 °F -0.8 °F 1018.8 in WSW 1.9 mph   43 % 0.0 in
18:52 11.1 °F -1.0 °F 1019.9 in WSW 1.9 mph   43 % 0.0 in
18:53 11.1 °F -1.0 °F 1019.9 in Calm     43 % 0.0 in
18:55 11.0 °F 2.3 °F 1019.9 in WSW 9.7 mph 11.3 mph 55 % 0.0 in
18:58 11.0 °F -1.1 °F 1019.9 in Calm     43 % 0.0 in
19:00 11.0 °F -1.1 °F 1019.9 in WSW 5.6 mph 5.6 mph 43 % 0.0 in
19:05 11.0 °F -1.1 °F 1019.9 in North 3.7 mph 3.7 mph 43 % 0.0 in
19:06 10.9 °F -1.2 °F 1019.9 in SW 1.9 mph 1.9 mph 43 % 0.0 in
19:11 11.0 °F -1.1 °F 1019.9 in WSW 9.3 mph 9.3 mph 43 % 0.0 in
19:15 10.8 °F 2.1 °F 1020.9 in WNW 3.2 mph 12.9 mph 55 % 0.0 in
19:16 11.6 °F -0.3 °F 1019.9 in NW 3.7 mph 3.7 mph 44 % 0.0 in
19:18 11.7 °F -0.2 °F 1019.9 in WNW 13.0 mph 13.0 mph 44 % 0.0 in
19:19 11.8 °F -0.1 °F 1019.9 in WSW 11.1 mph 11.1 mph 44 % 0.0 in
19:24 12.1 °F 0.2 °F 1018.8 in SW 9.3 mph 9.3 mph 44 % 0.0 in
19:25 10.6 °F 2.2 °F 1021.9 in SSE 1.6 mph 3.2 mph 56 % 0.0 in
19:27 12.2 °F 0.3 °F 1018.8 in SW 7.4 mph 7.4 mph 44 % 0.0 in
19:31 12.3 °F 0.4 °F 1018.8 in WSW 9.3 mph 9.3 mph 44 % 0.0 in
19:35 10.4 °F 2.2 °F 1021.9 in Calm   6.4 mph 57 % 0.0 in
19:36 12.4 °F 0.4 °F 1018.8 in WNW 3.7 mph 3.7 mph 44 % 0.0 in
19:41 12.3 °F 0.4 °F 1019.9 in SW 1.9 mph   44 % 0.0 in
19:42 12.2 °F 0.3 °F 1019.9 in ENE 3.5 mph 3.5 mph 44 % 0.0 in
19:45 10.1 °F 2.2 °F 1021.9 in Calm   3.2 mph 58 % 0.0 in
19:47 11.9 °F 0.0 °F 1019.9 in ENE 5.6 mph 5.6 mph 44 % 0.0 in
19:48 11.8 °F -0.4 °F 1019.9 in ENE 3.7 mph 3.7 mph 43 % 0.0 in
19:53 11.5 °F -0.7 °F 1019.9 in East 3.7 mph 3.9 mph 43 % 0.0 in
19:55 10.0 °F 2.1 °F 1021.9 in SSW 1.6 mph 4.8 mph 58 % 0.0 in
19:58 11.4 °F -0.8 °F 1019.9 in ENE 5.6 mph 5.6 mph 43 % 0.0 in
20:03 11.3 °F -0.8 °F 1019.9 in ENE 3.7 mph 3.7 mph 43 % 0.0 in
20:05 10.0 °F 2.1 °F 1021.9 in SW 3.2 mph 3.2 mph 58 % 0.0 in
20:08 11.3 °F -0.6 °F 1019.9 in West 5.6 mph 5.6 mph 44 % 0.0 in
20:09 11.3 °F -0.6 °F 1019.9 in NW 3.7 mph 3.7 mph 44 % 0.0 in
20:14 11.1 °F -0.7 °F 1019.9 in WNW 3.7 mph 3.7 mph 44 % 0.0 in
20:15 10.0 °F 2.3 °F 1021.9 in SW 4.8 mph 4.8 mph 59 % 0.0 in
20:19 11.3 °F -0.6 °F 1019.9 in West 4.2 mph 4.2 mph 44 % 0.0 in
20:21 11.4 °F -0.4 °F 1019.9 in WNW 3.7 mph 3.7 mph 44 % 0.0 in
20:25 11.6 °F 0.1 °F 1019.9 in WNW 9.3 mph 9.3 mph 45 % 0.0 in
20:26 11.8 °F 0.2 °F 1019.9 in WSW 9.3 mph 9.3 mph 45 % 0.0 in
20:30 12.0 °F 0.4 °F 1019.9 in WSW 9.3 mph 9.3 mph 45 % 0.0 in
20:32 12.0 °F 0.7 °F 1019.9 in West 7.4 mph 7.4 mph 46 % 0.0 in
20:35 10.1 °F 2.7 °F 1021.9 in SW 3.2 mph 8.0 mph 60 % 0.0 in
20:37 12.2 °F 0.9 °F 1019.9 in SW 9.3 mph 9.3 mph 46 % 0.0 in
20:42 12.3 °F 1.0 °F 1019.9 in North 11.1 mph 11.1 mph 46 % 0.0 in
20:44 12.3 °F 1.0 °F 1019.9 in WNW 7.4 mph 7.4 mph 46 % 0.0 in
20:45 10.1 °F 2.7 °F 1021.9 in SW 4.8 mph 8.0 mph 60 % 0.0 in
20:47 12.3 °F 1.0 °F 1019.9 in WSW 6.4 mph 6.4 mph 46 % 0.0 in
20:50 12.3 °F 1.0 °F 1019.9 in West 13.0 mph 13.0 mph 46 % 0.0 in
20:52 12.3 °F 1.0 °F 1019.9 in SW 9.3 mph 9.3 mph 46 % 0.0 in
20:55 12.3 °F 1.0 °F 1020.9 in ESE 16.7 mph 16.7 mph 46 % 0.0 in
21:00 12.4 °F 1.4 °F 1020.9 in WSW 11.1 mph 11.1 mph 47 % 0.0 in
21:01 12.3 °F 1.3 °F 1020.9 in SW 9.3 mph 9.3 mph 47 % 0.0 in
21:02 12.3 °F 1.3 °F 1020.9 in West 5.6 mph 5.6 mph 47 % 0.0 in
21:05 9.9 °F 2.7 °F 1021.9 in SW 4.8 mph 6.4 mph 61 % 0.0 in
21:07 12.2 °F 1.2 °F 1019.9 in SW 22.2 mph 22.2 mph 47 % 0.0 in
21:09 12.2 °F 1.2 °F 1019.9 in NW 9.3 mph 9.3 mph 47 % 0.0 in
21:12 12.1 °F 1.1 °F 1019.9 in WSW 7.4 mph 7.4 mph 47 % 0.0 in
21:15 9.8 °F 2.6 °F 1021.9 in SW 4.8 mph 4.8 mph 61 % 0.0 in
21:17 12.1 °F 1.1 °F 1019.9 in WSW 7.4 mph 7.4 mph 47 % 0.0 in
21:20 12.0 °F 1.0 °F 1019.9 in ESE 11.1 mph 11.1 mph 47 % 0.0 in
21:25 12.0 °F 1.3 °F 1020.9 in WSW 13.0 mph 13.0 mph 48 % 0.0 in
21:26 12.0 °F 1.3 °F 1020.9 in WSW 10.0 mph 10.0 mph 48 % 0.0 in
21:31 12.0 °F 1.3 °F 1020.9 in WNW 14.8 mph 14.8 mph 48 % 0.0 in
21:34 11.9 °F 1.2 °F 1020.9 in West 11.1 mph 11.1 mph 48 % 0.0 in
21:35 9.6 °F 2.4 °F 1021.9 in WSW 4.8 mph 6.4 mph 61 % 0.0 in
21:39 11.9 °F 1.5 °F 1020.9 in WSW 11.1 mph 11.1 mph 49 % 0.0 in
21:41 11.9 °F 1.5 °F 1020.9 in WSW 16.7 mph 16.7 mph 49 % 0.0 in
21:44 11.9 °F 1.8 °F 1020.9 in SW 16.7 mph 16.7 mph 50 % 0.0 in
21:45 9.7 °F 2.6 °F 1021.9 in WSW 8.0 mph 8.0 mph 61 % 0.0 in
21:49 11.8 °F 1.7 °F 1020.9 in WNW 11.1 mph 11.1 mph 50 % 0.0 in
21:54 11.8 °F 2.0 °F 1020.9 in WSW 14.8 mph 14.8 mph 51 % 0.0 in
21:55 9.5 °F 2.3 °F 1021.9 in WSW 4.8 mph 6.4 mph 61 % 0.0 in
21:59 11.7 °F 1.9 °F 1020.9 in WNW 13.0 mph 13.0 mph 51 % 0.0 in
22:00 11.7 °F 1.9 °F 1020.9 in North 13.0 mph 13.0 mph 51 % 0.0 in
22:01 11.7 °F 1.9 °F 1020.9 in SW 14.8 mph 14.8 mph 51 % 0.0 in
22:05 11.7 °F 1.9 °F 1020.9 in West 13.0 mph 13.0 mph 51 % 0.0 in
22:08 11.6 °F 2.1 °F 1020.9 in West 9.7 mph 9.7 mph 52 % 0.0 in
22:11 11.6 °F 2.1 °F 1020.9 in NW 14.8 mph 14.8 mph 52 % 0.0 in
22:15 9.4 °F 2.3 °F 1021.9 in WSW 3.2 mph 4.8 mph 61 % 0.0 in
22:16 11.5 °F 2.0 °F 1020.9 in WNW 16.7 mph 16.7 mph 52 % 0.0 in
22:17 11.5 °F 2.0 °F 1020.9 in WSW 18.5 mph 18.5 mph 52 % 0.0 in
22:18 11.5 °F 2.0 °F 1020.9 in West 18.5 mph 18.5 mph 52 % 0.0 in
22:23 11.5 °F 2.2 °F 1021.9 in West 20.4 mph 20.4 mph 53 % 0.0 in
22:24 11.5 °F 2.2 °F 1021.9 in WSW 16.9 mph 16.9 mph 53 % 0.0 in
22:25 9.4 °F 2.3 °F 1021.9 in WSW 9.7 mph 9.7 mph 61 % 0.0 in
22:26 11.4 °F 2.2 °F 1021.9 in West 11.1 mph 11.1 mph 53 % 0.0 in
22:31 11.4 °F 2.2 °F 1021.9 in WNW 20.4 mph 20.4 mph 53 % 0.0 in
22:32 11.4 °F 2.2 °F 1021.9 in WSW 18.5 mph 18.5 mph 53 % 0.0 in
22:35 9.3 °F 1.9 °F 1021.9 in WSW 4.8 mph 8.0 mph 60 % 0.0 in
22:37 11.3 °F 2.3 °F 1020.9 in West 18.5 mph 18.5 mph 54 % 0.0 in
22:38 11.3 °F 2.3 °F 1020.9 in West 13.0 mph 13.0 mph 54 % 0.0 in
22:43 11.2 °F 2.2 °F 1020.9 in WSW 11.1 mph 11.1 mph 54 % 0.0 in
22:45 9.2 °F 1.8 °F 1021.9 in WSW 4.8 mph 11.3 mph 60 % 0.0 in
22:48 11.1 °F 2.1 °F 1020.9 in SW 11.1 mph 11.1 mph 54 % 0.0 in
22:49 11.1 °F 2.1 °F 1020.9 in WNW 10.8 mph 10.8 mph 54 % 0.0 in
22:54 11.1 °F 2.4 °F 1020.9 in West 20.4 mph 20.4 mph 55 % 0.0 in
22:55 11.1 °F 2.4 °F 1020.9 in West 9.7 mph 20.9 mph 55 % 0.0 in
22:59 11.1 °F 2.4 °F 1020.9 in West 14.8 mph 14.8 mph 55 % 0.0 in
23:00 11.0 °F 2.3 °F 1020.9 in West 11.1 mph 11.1 mph 55 % 0.0 in
23:05 11.0 °F 2.3 °F 1020.9 in WSW 14.8 mph 14.8 mph 55 % 0.0 in
23:07 11.0 °F 2.6 °F 1021.9 in West 16.7 mph 16.7 mph 56 % 0.0 in
23:12 10.9 °F 2.4 °F 1021.9 in WNW 13.0 mph 13.0 mph 56 % 0.0 in
23:14 10.9 °F 2.4 °F 1021.9 in SSW 16.7 mph 16.7 mph 56 % 0.0 in
23:15 9.5 °F 1.9 °F 1021.9 in WSW 9.7 mph 9.7 mph 59 % 0.0 in
23:19 10.9 °F 2.4 °F 1021.9 in WSW 13.0 mph 13.0 mph 56 % 0.0 in
23:20 10.9 °F 2.4 °F 1021.9 in West 11.9 mph 11.9 mph 56 % 0.0 in
23:21 10.9 °F 2.4 °F 1021.9 in SW 12.2 mph 12.2 mph 56 % 0.0 in
23:25 10.8 °F 2.4 °F 1021.9 in West 16.7 mph 16.7 mph 56 % 0.0 in
23:26 10.8 °F 2.4 °F 1021.9 in WNW 13.0 mph 13.0 mph 56 % 0.0 in
23:31 10.8 °F 2.4 °F 1021.9 in WSW 11.1 mph 11.1 mph 56 % 0.0 in
23:33 10.8 °F 2.4 °F 1021.9 in West 16.7 mph 16.7 mph 56 % 0.0 in
23:35 9.3 °F 1.7 °F 1021.9 in West 4.8 mph 6.4 mph 59 % 0.0 in
23:36 10.8 °F 2.4 °F 1021.9 in WSW 16.7 mph 16.7 mph 56 % 0.0 in
23:40 10.8 °F 2.4 °F 1020.9 in West 11.3 mph 17.7 mph 56 % 0.0 in
23:44 10.8 °F 2.4 °F 1020.9 in WNW 9.3 mph 10.8 mph 56 % 0.0 in
23:45 10.8 °F 2.4 °F 1020.9 in West 15.6 mph 15.6 mph 56 % 0.0 in
23:49 10.8 °F 2.4 °F 1020.9 in West 16.7 mph 16.7 mph 56 % 0.0 in
23:51 10.8 °F 2.4 °F 1020.9 in WNW 16.7 mph 16.7 mph 56 % 0.0 in
23:55 8.9 °F 1.3 °F 1021.9 in West 4.8 mph 6.4 mph 59 % 0.0 in
23:56 10.8 °F 2.4 °F 1020.9 in WNW 18.5 mph 18.5 mph 56 % 0.0 in
23:57 10.9 °F 2.4 °F 1020.9 in WSW 16.7 mph 16.7 mph 56 % 0.0 in
Meteo Sesrovires
Elogis d' Weather Underground - 2 mb

Guio original per  Jim McMurry - jmcmurry@mwt.net Adaptat per a la plantilla per  Wim van der Kuil - Leuven-Template.eu

Trobareu la nostra informacio del temps tambe a:

Weather Underground

AWEKAS